createdAt,value
2023-05-17T00:00:38.641Z,22.40
2023-05-17T00:03:06.216Z,22.41
2023-05-17T00:05:33.456Z,22.62
2023-05-17T00:08:00.663Z,22.63
2023-05-17T00:10:28.151Z,22.16
2023-05-17T00:12:55.451Z,22.75
2023-05-17T00:15:22.689Z,22.48
2023-05-17T00:17:50.227Z,22.40
2023-05-17T00:20:17.603Z,22.86
2023-05-17T00:22:47.267Z,22.78
2023-05-17T00:25:14.782Z,22.31
2023-05-17T00:27:42.001Z,22.56
2023-05-17T00:30:09.368Z,22.90
2023-05-17T00:32:37.415Z,22.30
2023-05-17T00:35:04.960Z,21.20
2023-05-17T00:37:32.169Z,22.03
2023-05-17T00:39:59.635Z,22.25
2023-05-17T00:42:26.825Z,22.27
2023-05-17T00:44:54.032Z,21.96
2023-05-17T00:47:21.557Z,22.31
2023-05-17T00:49:50.508Z,22.19
2023-05-17T00:52:17.934Z,21.09
2023-05-17T00:54:45.451Z,21.69
2023-05-17T00:57:12.940Z,22.18
2023-05-17T00:59:40.106Z,21.33
2023-05-17T01:02:07.688Z,22.05
2023-05-17T01:04:34.973Z,22.60
2023-05-17T01:07:02.179Z,21.93
2023-05-17T01:09:29.737Z,20.79
2023-05-17T01:12:00.529Z,19.52
2023-05-17T01:14:34.379Z,20.08
2023-05-17T01:17:03.350Z,21.40
2023-05-17T01:19:49.422Z,21.36
2023-05-17T01:22:39.067Z,22.64
2023-05-17T01:25:25.108Z,22.58
2023-05-17T01:27:52.731Z,22.81
2023-05-17T01:30:20.044Z,22.49
2023-05-17T01:32:47.517Z,22.70
2023-05-17T01:35:15.145Z,22.25
2023-05-17T01:37:42.353Z,22.62
2023-05-17T01:40:09.636Z,23.48
2023-05-17T01:42:38.942Z,23.79
2023-05-17T01:45:06.696Z,23.49
2023-05-17T01:47:40.181Z,22.74
2023-05-17T01:50:07.917Z,23.13
2023-05-17T01:52:51.375Z,24.06
2023-05-17T01:55:22.024Z,23.18
2023-05-17T01:57:49.219Z,21.46
2023-05-17T02:00:16.506Z,21.37
2023-05-17T02:02:46.325Z,20.84
2023-05-17T02:05:13.856Z,19.28
2023-05-17T02:07:41.128Z,17.23
2023-05-17T02:10:08.877Z,16.78
2023-05-17T02:12:36.666Z,17.53
2023-05-17T02:15:04.478Z,17.49
2023-05-17T02:17:32.156Z,16.77
2023-05-17T02:19:59.495Z,16.53
2023-05-17T02:22:27.611Z,17.31
2023-05-17T02:24:54.810Z,18.84
2023-05-17T02:27:22.624Z,20.16
2023-05-17T02:29:50.080Z,20.28
2023-05-17T02:32:17.306Z,20.56
2023-05-17T02:34:46.411Z,20.78
2023-05-17T02:37:13.872Z,19.64
2023-05-17T02:39:41.249Z,18.79
2023-05-17T02:42:08.520Z,18.32
2023-05-17T02:44:35.954Z,17.23
2023-05-17T02:47:03.261Z,17.86
2023-05-17T02:49:30.632Z,18.91
2023-05-17T02:51:58.202Z,19.13
2023-05-17T02:54:25.532Z,17.44
2023-05-17T02:56:52.917Z,20.61
2023-05-17T02:59:20.422Z,22.14
2023-05-17T03:01:48.928Z,22.07
2023-05-17T03:04:16.821Z,22.39
2023-05-17T03:06:44.363Z,22.43
2023-05-17T03:09:11.851Z,22.69
2023-05-17T03:11:39.138Z,22.46
2023-05-17T03:14:07.350Z,21.77
2023-05-17T03:16:35.163Z,20.01
2023-05-17T03:19:02.883Z,21.46
2023-05-17T03:21:30.589Z,20.45
2023-05-17T03:23:58.220Z,18.04
2023-05-17T03:26:25.689Z,17.66
2023-05-17T03:28:53.882Z,18.25
2023-05-17T03:31:21.055Z,20.22
2023-05-17T03:33:48.391Z,21.30
2023-05-17T03:36:16.033Z,17.57
2023-05-17T03:38:43.362Z,16.89
2023-05-17T03:41:10.787Z,16.36
2023-05-17T03:43:38.466Z,16.23
2023-05-17T03:46:06.449Z,17.03
2023-05-17T03:48:36.157Z,17.88
2023-05-17T03:51:04.163Z,18.11
2023-05-17T03:53:31.375Z,17.87
2023-05-17T03:55:58.567Z,19.42
2023-05-17T03:58:26.912Z,21.26
2023-05-17T04:00:54.089Z,20.84
2023-05-17T04:03:21.615Z,21.95
2023-05-17T04:05:48.914Z,20.50
2023-05-17T04:08:16.245Z,20.09
2023-05-17T04:10:43.720Z,19.55
2023-05-17T04:13:10.935Z,18.17
2023-05-17T04:15:38.216Z,17.59
2023-05-17T04:18:06.108Z,17.62
2023-05-17T04:20:33.330Z,18.57
2023-05-17T04:23:00.586Z,20.33
2023-05-17T04:25:29.105Z,18.99
2023-05-17T04:27:56.891Z,16.78
2023-05-17T04:30:25.048Z,18.27
2023-05-17T04:32:52.594Z,16.49
2023-05-17T04:35:20.036Z,17.29
2023-05-17T04:37:47.900Z,16.89
2023-05-17T04:40:16.198Z,17.42
2023-05-17T04:42:43.690Z,17.06
2023-05-17T04:45:13.414Z,19.75
2023-05-17T04:47:42.316Z,18.18
2023-05-17T04:50:09.614Z,17.05
2023-05-17T04:52:37.007Z,19.76
2023-05-17T04:55:05.329Z,20.83
2023-05-17T04:57:32.522Z,17.90
2023-05-17T05:00:00.083Z,17.65
2023-05-17T05:02:27.637Z,17.20
2023-05-17T05:04:54.904Z,17.77
2023-05-17T05:07:22.205Z,16.97
2023-05-17T05:09:49.791Z,19.72
2023-05-17T05:12:17.070Z,21.20
2023-05-17T05:14:44.369Z,18.93
2023-05-17T05:17:11.885Z,17.84
2023-05-17T05:19:40.293Z,18.16
2023-05-17T05:22:07.811Z,18.56
2023-05-17T05:24:36.200Z,18.27
2023-05-17T05:27:06.279Z,18.84
2023-05-17T05:29:34.803Z,17.92
2023-05-17T05:32:02.796Z,17.39
2023-05-17T05:34:32.451Z,20.43
2023-05-17T05:37:02.370Z,19.21
2023-05-17T05:39:29.708Z,19.63
2023-05-17T05:41:56.894Z,19.94
2023-05-17T05:44:25.907Z,17.92
2023-05-17T05:46:53.804Z,20.16
2023-05-17T05:49:21.027Z,18.56
2023-05-17T05:51:49.005Z,17.92
2023-05-17T05:54:17.163Z,19.90
2023-05-17T05:56:44.672Z,21.07
2023-05-17T05:59:13.097Z,20.59
2023-05-17T06:01:41.596Z,19.73
2023-05-17T06:04:09.279Z,19.41
2023-05-17T06:06:37.256Z,19.52
2023-05-17T06:09:07.054Z,18.67
2023-05-17T06:11:34.566Z,20.13
2023-05-17T06:14:01.897Z,19.43
2023-05-17T06:16:29.076Z,20.41
2023-05-17T06:18:56.712Z,20.35
2023-05-17T06:21:24.145Z,20.58
2023-05-17T06:23:53.149Z,20.64
2023-05-17T06:26:20.692Z,18.84
2023-05-17T06:28:47.949Z,19.79
2023-05-17T06:31:15.148Z,20.49
2023-05-17T06:33:42.683Z,20.52
2023-05-17T06:36:09.986Z,20.47
2023-05-17T06:38:39.471Z,21.31
2023-05-17T06:41:07.118Z,21.12
2023-05-17T06:43:35.798Z,21.33
2023-05-17T06:46:05.006Z,18.50
2023-05-17T06:48:32.720Z,20.26
2023-05-17T06:51:00.112Z,20.16
2023-05-17T06:53:27.391Z,20.60
2023-05-17T06:55:54.999Z,20.42
2023-05-17T06:58:22.306Z,19.24
2023-05-17T07:00:49.494Z,20.22
2023-05-17T07:03:17.098Z,16.86
2023-05-17T07:05:44.431Z,18.40
2023-05-17T07:08:11.585Z,17.27
2023-05-17T07:10:39.070Z,18.16
2023-05-17T07:13:06.332Z,19.34
2023-05-17T07:15:33.673Z,19.00
2023-05-17T07:18:01.279Z,18.92
2023-05-17T07:20:28.804Z,18.56
2023-05-17T07:22:56.324Z,18.30
2023-05-17T07:25:23.780Z,19.67
2023-05-17T07:27:51.041Z,20.51
2023-05-17T07:30:19.353Z,20.34
2023-05-17T07:32:46.922Z,17.92
2023-05-17T07:35:14.692Z,19.26
2023-05-17T07:37:42.219Z,17.29
2023-05-17T07:40:10.309Z,19.29
2023-05-17T07:42:37.528Z,16.54
2023-05-17T07:45:04.911Z,19.13
2023-05-17T07:47:32.798Z,19.78
2023-05-17T07:50:00.001Z,20.40
2023-05-17T07:52:27.214Z,20.13
2023-05-17T07:54:54.760Z,20.13
2023-05-17T07:57:21.971Z,19.18
2023-05-17T07:59:49.232Z,16.39
2023-05-17T08:02:16.732Z,17.03
2023-05-17T08:04:44.424Z,17.61
2023-05-17T08:07:11.672Z,19.93
2023-05-17T08:09:40.244Z,20.61
2023-05-17T08:12:07.730Z,20.16
2023-05-17T08:14:34.919Z,16.74
2023-05-17T08:17:02.177Z,16.37
2023-05-17T08:19:29.956Z,19.09
2023-05-17T08:21:57.344Z,17.71
2023-05-17T08:24:24.573Z,18.91
2023-05-17T08:26:54.040Z,17.26
2023-05-17T08:29:21.262Z,17.46
2023-05-17T08:31:48.439Z,18.22
2023-05-17T08:34:16.013Z,17.53
2023-05-17T08:36:44.602Z,19.41
2023-05-17T08:39:12.662Z,18.98
2023-05-17T08:41:40.205Z,18.88
2023-05-17T08:44:07.398Z,19.48
2023-05-17T08:46:34.984Z,20.27
2023-05-17T08:49:04.147Z,19.72
2023-05-17T08:51:31.404Z,17.15
2023-05-17T08:53:58.660Z,18.37
2023-05-17T08:56:26.205Z,19.38
2023-05-17T08:58:57.951Z,19.68
2023-05-17T09:01:27.458Z,19.75
2023-05-17T09:03:55.290Z,19.33
2023-05-17T09:06:23.589Z,19.52
2023-05-17T09:08:58.537Z,20.01
2023-05-17T09:11:29.724Z,18.02
2023-05-17T09:14:01.526Z,18.61
2023-05-17T09:16:29.770Z,19.28
2023-05-17T09:18:57.765Z,19.71
2023-05-17T09:21:25.459Z,19.29
2023-05-17T09:24:04.689Z,17.13
2023-05-17T09:26:40.476Z,17.46
2023-05-17T09:29:08.602Z,16.75
2023-05-17T09:31:36.222Z,18.30
2023-05-17T09:34:03.562Z,19.25
2023-05-17T09:36:31.562Z,19.97
2023-05-17T09:39:04.568Z,17.03
2023-05-17T09:41:32.314Z,18.19
2023-05-17T09:44:01.124Z,18.53
2023-05-17T09:46:28.812Z,17.71
2023-05-17T09:48:56.729Z,18.54
2023-05-17T09:51:39.002Z,18.40
2023-05-17T09:54:06.758Z,17.75
2023-05-17T09:56:35.184Z,16.01
2023-05-17T09:59:02.840Z,18.06
2023-05-17T10:01:30.872Z,16.64
2023-05-17T10:04:04.611Z,16.41
2023-05-17T10:06:46.012Z,15.67
2023-05-17T10:09:17.114Z,16.22
2023-05-17T10:11:46.363Z,17.24
2023-05-17T10:14:18.645Z,16.14
2023-05-17T10:16:46.454Z,17.29
2023-05-17T10:19:13.794Z,15.87
2023-05-17T10:21:41.153Z,17.19
2023-05-17T10:24:08.669Z,17.18
2023-05-17T10:26:36.424Z,18.21
2023-05-17T10:29:03.688Z,17.40
2023-05-17T10:31:33.285Z,17.42
2023-05-17T10:34:01.509Z,18.61
2023-05-17T10:36:28.970Z,16.65
2023-05-17T10:38:56.597Z,18.14
2023-05-17T10:41:25.803Z,17.36
2023-05-17T10:43:53.217Z,17.60
2023-05-17T10:46:24.123Z,16.94
2023-05-17T10:48:52.210Z,16.49
2023-05-17T10:51:37.951Z,16.15
2023-05-17T10:54:09.193Z,15.71
2023-05-17T10:56:39.478Z,16.35
2023-05-17T10:59:17.078Z,17.31
2023-05-17T11:01:54.579Z,16.42
2023-05-17T11:04:26.416Z,18.22
2023-05-17T11:07:25.186Z,17.92
2023-05-17T11:09:55.930Z,16.70
2023-05-17T11:12:34.941Z,16.89
2023-05-17T11:15:08.581Z,16.54
2023-05-17T11:17:42.606Z,15.85
2023-05-17T11:20:13.875Z,16.00
2023-05-17T11:22:42.433Z,15.69
2023-05-17T11:25:13.553Z,17.03
2023-05-17T11:27:50.827Z,15.25
2023-05-17T11:30:31.655Z,16.67
2023-05-17T11:33:00.340Z,17.82
2023-05-17T11:35:29.202Z,15.37
2023-05-17T11:38:16.182Z,17.08
2023-05-17T11:40:44.330Z,16.47
2023-05-17T11:43:18.648Z,16.33
2023-05-17T11:45:53.815Z,16.11
2023-05-17T11:48:22.203Z,16.29
2023-05-17T11:50:50.638Z,17.72
2023-05-17T11:53:18.188Z,17.03
2023-05-17T11:55:50.433Z,17.31
2023-05-17T11:58:19.311Z,16.41
2023-05-17T12:00:51.328Z,16.66
2023-05-17T12:03:19.619Z,16.30
2023-05-17T12:05:47.358Z,16.35
2023-05-17T12:08:18.308Z,15.56
2023-05-17T12:10:49.994Z,17.22
2023-05-17T12:13:17.354Z,16.86
2023-05-17T12:15:45.265Z,17.58
2023-05-17T12:18:13.268Z,17.21
2023-05-17T12:20:52.940Z,16.56
2023-05-17T12:23:25.842Z,16.44
2023-05-17T12:26:01.835Z,15.68
2023-05-17T12:28:29.454Z,17.17
2023-05-17T12:31:02.691Z,16.81
2023-05-17T12:33:31.275Z,17.35
2023-05-17T12:35:59.571Z,17.21
2023-05-17T12:38:28.499Z,17.37
2023-05-17T12:40:56.116Z,16.96
2023-05-17T12:43:24.402Z,17.26
2023-05-17T12:45:52.767Z,16.74
2023-05-17T12:48:23.880Z,17.33
2023-05-17T12:50:52.269Z,18.41
2023-05-17T12:53:19.830Z,18.15
2023-05-17T12:55:47.089Z,18.22
2023-05-17T12:58:14.285Z,16.64
2023-05-17T13:00:41.829Z,17.38
2023-05-17T13:03:09.706Z,15.96
2023-05-17T13:05:36.945Z,16.24
2023-05-17T13:08:20.396Z,18.17
2023-05-17T13:10:49.842Z,17.86
2023-05-17T13:13:20.662Z,17.59
2023-05-17T13:15:48.030Z,18.37
2023-05-17T13:18:16.376Z,17.32
2023-05-17T13:20:44.086Z,18.30
2023-05-17T13:23:11.439Z,17.15
2023-05-17T13:25:39.973Z,17.79
2023-05-17T13:28:07.452Z,15.95
2023-05-17T13:30:34.708Z,17.46
2023-05-17T13:33:02.002Z,17.46
2023-05-17T13:35:29.587Z,18.03
2023-05-17T13:37:57.910Z,16.73
2023-05-17T13:40:25.112Z,16.13
2023-05-17T13:42:52.818Z,17.43
2023-05-17T13:45:20.056Z,17.91
2023-05-17T13:47:47.409Z,17.16
2023-05-17T13:50:17.361Z,18.35
2023-05-17T13:52:44.653Z,17.54
2023-05-17T13:55:12.210Z,15.91
2023-05-17T13:57:39.723Z,16.88
2023-05-17T14:00:07.279Z,17.60
2023-05-17T14:02:36.339Z,17.08
2023-05-17T14:05:05.488Z,17.27
2023-05-17T14:07:33.036Z,16.90
2023-05-17T14:10:01.017Z,17.33
2023-05-17T14:12:28.605Z,16.73
2023-05-17T14:14:55.978Z,15.74
2023-05-17T14:17:23.517Z,15.12
2023-05-17T14:19:51.063Z,15.56
2023-05-17T14:22:18.433Z,14.62
2023-05-17T14:24:45.972Z,15.73
2023-05-17T14:27:13.240Z,15.67
2023-05-17T14:29:40.684Z,15.34
2023-05-17T14:32:08.221Z,16.42
2023-05-17T14:34:35.646Z,16.63
2023-05-17T14:37:03.069Z,16.96
2023-05-17T14:39:30.837Z,14.71
2023-05-17T14:41:58.445Z,16.08
2023-05-17T14:44:27.058Z,16.27
2023-05-17T14:46:54.547Z,15.98
2023-05-17T14:49:21.791Z,15.25
2023-05-17T14:51:49.095Z,15.17
2023-05-17T14:54:16.865Z,15.84
2023-05-17T14:56:45.453Z,16.37
2023-05-17T14:59:12.845Z,15.54
2023-05-17T15:01:40.336Z,15.21
2023-05-17T15:04:07.851Z,15.20
2023-05-17T15:06:35.172Z,16.09
2023-05-17T15:09:04.043Z,16.97
2023-05-17T15:11:31.399Z,15.04
2023-05-17T15:13:58.996Z,15.67
2023-05-17T15:16:26.834Z,16.80
2023-05-17T15:18:56.117Z,16.39
2023-05-17T15:21:24.988Z,16.64
2023-05-17T15:23:52.476Z,16.10
2023-05-17T15:26:19.732Z,15.06
2023-05-17T15:28:49.845Z,13.96
2023-05-17T15:31:17.330Z,15.26
2023-05-17T15:33:44.648Z,14.23
2023-05-17T15:36:13.151Z,15.42
2023-05-17T15:38:41.343Z,14.11
2023-05-17T15:41:11.076Z,15.18
2023-05-17T15:43:38.266Z,14.48
2023-05-17T15:46:05.806Z,14.35
2023-05-17T15:48:34.268Z,15.07
2023-05-17T15:51:02.090Z,14.85
2023-05-17T15:53:29.750Z,15.00
2023-05-17T15:55:57.064Z,15.14
2023-05-17T15:58:24.870Z,14.08
2023-05-17T16:00:52.660Z,14.69
2023-05-17T16:03:20.461Z,15.24
2023-05-17T16:05:47.880Z,15.12
2023-05-17T16:08:15.253Z,15.25
2023-05-17T16:10:42.925Z,15.60
2023-05-17T16:13:10.167Z,14.78
2023-05-17T16:15:37.586Z,15.42
2023-05-17T16:18:05.319Z,14.97
2023-05-17T16:20:32.602Z,15.26
2023-05-17T16:22:59.960Z,15.44
2023-05-17T16:25:27.819Z,16.38
2023-05-17T16:27:58.292Z,14.70
2023-05-17T16:30:25.585Z,15.10
2023-05-17T16:32:53.152Z,15.13
2023-05-17T16:35:23.547Z,15.09
2023-05-17T16:37:51.538Z,15.31
2023-05-17T16:40:19.139Z,15.42
2023-05-17T16:42:46.596Z,14.89
2023-05-17T16:45:13.827Z,14.88
2023-05-17T16:47:41.595Z,14.16
2023-05-17T16:50:09.220Z,13.50
2023-05-17T16:52:36.436Z,13.41
2023-05-17T16:55:04.120Z,14.50
2023-05-17T16:57:32.776Z,13.98
2023-05-17T17:00:01.021Z,14.35
2023-05-17T17:02:29.586Z,14.66
2023-05-17T17:04:58.563Z,15.19
2023-05-17T17:07:26.118Z,13.73
2023-05-17T17:09:53.634Z,14.25
2023-05-17T17:12:25.208Z,14.28
2023-05-17T17:14:53.854Z,14.41
2023-05-17T17:17:21.502Z,14.26
2023-05-17T17:19:48.740Z,14.03
2023-05-17T17:22:16.716Z,13.96
2023-05-17T17:24:44.470Z,14.25
2023-05-17T17:27:12.021Z,14.39
2023-05-17T17:29:39.536Z,14.21
2023-05-17T17:32:07.248Z,13.08
2023-05-17T17:34:34.505Z,13.72
2023-05-17T17:37:02.076Z,14.25
2023-05-17T17:39:30.366Z,13.65
2023-05-17T17:41:57.547Z,15.19
2023-05-17T17:44:25.332Z,15.45
2023-05-17T17:46:52.713Z,12.85
2023-05-17T17:49:20.029Z,13.05
2023-05-17T17:51:47.497Z,13.17
2023-05-17T17:54:14.701Z,14.51
2023-05-17T17:56:41.902Z,14.61
2023-05-17T17:59:09.395Z,14.42
2023-05-17T18:01:38.395Z,14.23
2023-05-17T18:04:06.091Z,13.41
2023-05-17T18:06:33.577Z,14.46
2023-05-17T18:09:00.898Z,15.49
2023-05-17T18:11:28.372Z,13.15
2023-05-17T18:13:55.709Z,15.48
2023-05-17T18:16:23.182Z,14.31
2023-05-17T18:18:51.230Z,13.99
2023-05-17T18:21:18.665Z,13.20
2023-05-17T18:23:46.210Z,14.80
2023-05-17T18:26:13.693Z,13.88
2023-05-17T18:28:42.894Z,14.55
2023-05-17T18:31:10.685Z,15.22
2023-05-17T18:33:38.217Z,14.35
2023-05-17T18:36:06.865Z,14.14
2023-05-17T18:38:35.576Z,14.77
2023-05-17T18:41:03.124Z,14.87
2023-05-17T18:43:31.421Z,14.83
2023-05-17T18:45:58.730Z,14.59
2023-05-17T18:48:26.716Z,13.85
2023-05-17T18:50:54.462Z,14.61
2023-05-17T18:53:22.189Z,13.71
2023-05-17T18:55:49.717Z,14.28
2023-05-17T18:58:17.019Z,14.33
2023-05-17T19:00:48.629Z,13.67
2023-05-17T19:03:17.038Z,13.57
2023-05-17T19:05:44.913Z,13.60
2023-05-17T19:08:12.787Z,15.02
2023-05-17T19:10:40.863Z,14.51
2023-05-17T19:13:09.307Z,14.40
2023-05-17T19:15:37.233Z,14.61
2023-05-17T19:18:05.795Z,13.43
2023-05-17T19:20:34.926Z,14.21
2023-05-17T19:23:02.242Z,14.50
2023-05-17T19:25:30.360Z,14.78
2023-05-17T19:27:57.828Z,15.17
2023-05-17T19:30:25.164Z,14.31
2023-05-17T19:32:53.187Z,13.09
2023-05-17T19:35:21.305Z,13.80
2023-05-17T19:37:48.920Z,13.77
2023-05-17T19:40:19.404Z,14.02
2023-05-17T19:42:47.029Z,15.78
2023-05-17T19:45:14.741Z,15.55
2023-05-17T19:47:43.278Z,13.82
2023-05-17T19:50:12.205Z,15.02
2023-05-17T19:52:41.711Z,16.72
2023-05-17T19:55:10.117Z,15.18
2023-05-17T19:57:37.505Z,16.19
2023-05-17T20:00:05.786Z,15.92
2023-05-17T20:02:33.201Z,17.04
2023-05-17T20:05:04.160Z,14.90
2023-05-17T20:07:33.107Z,14.73
2023-05-17T20:10:01.708Z,14.11
2023-05-17T20:12:29.445Z,14.90
2023-05-17T20:14:56.767Z,15.96
2023-05-17T20:17:24.602Z,15.18
2023-05-17T20:19:52.199Z,13.45
2023-05-17T20:22:21.104Z,14.31
2023-05-17T20:24:48.924Z,15.01
2023-05-17T20:27:16.384Z,15.84
2023-05-17T20:29:43.956Z,15.41
2023-05-17T20:32:11.550Z,14.97
2023-05-17T20:34:38.765Z,14.73
2023-05-17T20:37:06.021Z,13.63
2023-05-17T20:39:33.525Z,13.39
2023-05-17T20:42:01.389Z,13.76
2023-05-17T20:44:28.860Z,14.01
2023-05-17T20:46:56.940Z,14.01
2023-05-17T20:49:24.196Z,14.29
2023-05-17T20:51:51.403Z,13.80
2023-05-17T20:54:18.841Z,13.84
2023-05-17T20:56:46.111Z,13.59
2023-05-17T20:59:13.282Z,13.37
2023-05-17T21:01:41.478Z,13.65
2023-05-17T21:04:08.822Z,13.47
2023-05-17T21:06:36.397Z,13.84
2023-05-17T21:09:03.925Z,13.98
2023-05-17T21:11:31.172Z,14.53
2023-05-17T21:13:59.776Z,14.02
2023-05-17T21:16:27.413Z,13.99
2023-05-17T21:18:54.742Z,14.17
2023-05-17T21:21:21.988Z,13.92
2023-05-17T21:23:49.621Z,14.92
2023-05-17T21:26:17.203Z,14.08
2023-05-17T21:28:44.478Z,14.38
2023-05-17T21:31:12.029Z,13.93
2023-05-17T21:33:39.382Z,13.84
2023-05-17T21:36:06.589Z,13.06
2023-05-17T21:38:34.090Z,13.62
2023-05-17T21:41:01.386Z,13.52
2023-05-17T21:43:28.984Z,12.90
2023-05-17T21:45:56.439Z,12.41
2023-05-17T21:48:23.729Z,12.71
2023-05-17T21:50:50.967Z,13.09
2023-05-17T21:53:18.425Z,12.51
2023-05-17T21:56:00.688Z,13.04
2023-05-17T21:58:30.469Z,13.22
2023-05-17T22:00:58.154Z,15.79
2023-05-17T22:03:26.008Z,14.49
2023-05-17T22:05:53.516Z,14.04
2023-05-17T22:08:20.727Z,15.03
2023-05-17T22:10:50.214Z,14.43
2023-05-17T22:13:18.386Z,13.50
2023-05-17T22:15:45.734Z,13.14
2023-05-17T22:18:13.809Z,13.91
2023-05-17T22:20:41.069Z,14.26
2023-05-17T22:23:08.307Z,14.15
2023-05-17T22:25:35.842Z,12.53
2023-05-17T22:28:03.200Z,13.88
2023-05-17T22:30:30.585Z,12.51
2023-05-17T22:32:58.472Z,13.16
2023-05-17T22:35:25.774Z,14.13
2023-05-17T22:37:53.579Z,14.51
2023-05-17T22:40:21.254Z,15.95
2023-05-17T22:42:48.589Z,14.34
2023-05-17T22:45:15.908Z,13.61
2023-05-17T22:47:43.595Z,14.67
2023-05-17T22:50:12.105Z,15.19
2023-05-17T22:52:41.229Z,14.90
2023-05-17T22:55:09.605Z,15.37
2023-05-17T22:57:36.835Z,15.52
2023-05-17T23:00:06.309Z,14.74
2023-05-17T23:02:33.805Z,15.64
2023-05-17T23:05:03.854Z,15.39
2023-05-17T23:07:37.014Z,14.32
2023-05-17T23:10:05.197Z,13.25
2023-05-17T23:12:33.269Z,15.44
2023-05-17T23:15:00.460Z,13.30
2023-05-17T23:17:32.506Z,14.46
2023-05-17T23:20:02.052Z,13.90
2023-05-17T23:22:31.591Z,13.39
2023-05-17T23:24:59.095Z,13.28
2023-05-17T23:27:27.720Z,14.28
2023-05-17T23:29:56.413Z,13.26
2023-05-17T23:32:23.745Z,12.91
2023-05-17T23:34:54.147Z,13.76
2023-05-17T23:37:21.581Z,14.58
2023-05-17T23:39:48.761Z,14.45
2023-05-17T23:42:15.933Z,14.49
2023-05-17T23:44:43.507Z,15.04
2023-05-17T23:47:10.714Z,13.08
2023-05-17T23:49:41.066Z,15.58
2023-05-17T23:52:10.906Z,17.23
2023-05-17T23:54:42.119Z,15.79
2023-05-17T23:57:09.615Z,15.65
2023-05-17T23:59:36.943Z,16.18
